Time;durP1;ratioP1;P1;durP2;ratioP2;P2;SDS_P1;SDS_P2;PMS_P1;PMS_P2;Temp;Humidity;BMP_temperature;BMP_pressure;BME280_temperature;BME280_humidity;BME280_pressure;Samples;Min_cycle;Max_cycle;Signal;HPM_P1;HPM_P2
2022/11/07 00:02:04;;;;;;;;;;;;;;;13.37;43.11;95318.88;5025425;28;20014;-66
2022/11/07 00:04:30;;;;;;;;;;;;;;;13.86;42.20;95320.13;5029303;28;20010;-66
2022/11/07 00:06:55;;;;;;;;;;;;;;;13.92;42.02;95326.91;5029946;28;20080;-65
2022/11/07 00:09:20;;;;;;;;;;;;;;;14.01;41.79;95329.53;5029984;28;20043;-66
2022/11/07 00:11:45;;;;;;;;;;;;;;;14.02;41.72;95321.22;5029313;28;20144;-66
2022/11/07 00:14:15;;;;;;;;;;;;;;;14.11;41.54;95318.47;5030352;28;20033;-67
2022/11/07 00:16:41;;;;;;;;;;;;;;;13.95;41.66;95320.91;5029580;28;20025;-66
2022/11/07 00:19:06;;;;;;;;;;;;;;;13.41;42.87;95331.28;5028868;28;20014;-66
2022/11/07 00:21:31;;;;;;;;;;;;;;;13.55;42.78;95319.59;5028989;28;20144;-66
2022/11/07 00:23:57;;;;;;;;;;;;;;;13.84;42.55;95324.25;5029256;28;20068;-71
2022/11/07 00:26:22;;;;;;;;;;;;;;;13.39;43.20;95330.78;5030557;28;20010;-66
2022/11/07 00:28:47;;;;;;;;;;;;;;;13.37;43.58;95332.22;5029767;28;20013;-66
2022/11/07 00:31:13;;;;;;;;;;;;;;;13.33;43.50;95331.28;5028737;28;20501;-66
2022/11/07 00:33:39;;;;;;;;;;;;;;;13.36;43.20;95326.09;5027816;28;20013;-66
2022/11/07 00:36:04;;;;;;;;;;;;;;;13.03;43.86;95333.78;5027966;28;20017;-66
2022/11/07 00:38:30;;;;;;;;;;;;;;;13.40;43.38;95342.25;5026869;28;20013;-66
2022/11/07 00:40:55;;;;;;;;;;;;;;;13.13;43.72;95338.78;5030497;28;20016;-66
2022/11/07 00:43:21;;;;;;;;;;;;;;;12.88;44.54;95342.25;5028007;28;20104;-66
2022/11/07 00:45:46;;;;;;;;;;;;;;;13.30;43.88;95348.72;5029185;28;20018;-66
2022/11/07 00:48:11;;;;;;;;;;;;;;;12.87;44.74;95346.03;5030574;28;20497;-66
2022/11/07 00:50:36;;;;;;;;;;;;;;;13.09;44.58;95353.88;5027735;28;20025;-66
2022/11/07 00:53:02;;;;;;;;;;;;;;;13.32;44.16;95361.78;5029647;28;20018;-66
2022/11/07 00:55:27;;;;;;;;;;;;;;;13.24;44.53;95364.13;5027144;28;20021;-66
2022/11/07 00:57:52;;;;;;;;;;;;;;;13.45;44.16;95358.91;5030528;28;20052;-67
2022/11/07 01:00:17;;;;;;;;;;;;;;;13.66;43.90;95371.63;5028466;28;20041;-66
2022/11/07 01:02:43;;;;;;;;;;;;;;;13.46;44.42;95373.88;5028726;28;20018;-65
2022/11/07 01:05:11;;;;;;;;;;;;;;;13.92;43.95;95372.38;5029991;28;20454;-65
2022/11/07 01:07:38;;;;;;;;;;;;;;;13.99;44.18;95364.63;5015915;28;20018;-66
2022/11/07 01:10:04;;;;;;;;;;;;;;;13.71;44.78;95374.13;5010749;28;20462;-65
2022/11/07 01:12:31;;;;;;;;;;;;;;;13.73;44.97;95378.06;5024319;28;20021;-66
2022/11/07 01:14:56;;;;;;;;;;;;;;;13.58;45.41;95373.22;5028311;28;20018;-66
2022/11/07 01:17:21;;;;;;;;;;;;;;;13.53;45.71;95374.16;5027747;28;20033;-65
2022/11/07 01:19:46;;;;;;;;;;;;;;;13.65;45.45;95381.53;5027069;28;20104;-66
2022/11/07 01:22:12;;;;;;;;;;;;;;;13.90;45.14;95379.91;5027959;28;20010;-66
2022/11/07 01:24:37;;;;;;;;;;;;;;;14.01;44.91;95372.31;5028181;28;20014;-67
2022/11/07 01:27:02;;;;;;;;;;;;;;;13.94;45.34;95375.50;5027725;28;20017;-65
2022/11/07 01:29:27;;;;;;;;;;;;;;;14.18;45.05;95374.19;5028690;28;20013;-66
2022/11/07 01:31:53;;;;;;;;;;;;;;;13.75;45.57;95383.88;5029078;28;20013;-66
2022/11/07 01:34:18;;;;;;;;;;;;;;;13.30;47.26;95391.44;5029018;28;20500;-65
2022/11/07 01:36:43;;;;;;;;;;;;;;;13.85;45.87;95385.41;5022883;28;20006;-66
2022/11/07 01:39:08;;;;;;;;;;;;;;;13.59;46.71;95393.50;5028570;28;20012;-66
2022/11/07 01:41:35;;;;;;;;;;;;;;;13.70;46.94;95386.72;5027830;28;20006;-66
2022/11/07 01:44:00;;;;;;;;;;;;;;;14.04;45.94;95388.53;5027892;28;20006;-65
2022/11/07 01:46:28;;;;;;;;;;;;;;;14.34;44.99;95390.47;5026782;28;20522;-65
2022/11/07 01:48:57;;;;;;;;;;;;;;;14.05;45.70;95392.75;5027551;28;20100;-66
2022/11/07 01:51:22;;;;;;;;;;;;;;;13.62;46.66;95395.53;5027863;28;20013;-66
2022/11/07 01:53:48;;;;;;;;;;;;;;;13.78;46.49;95403.84;5028774;28;20535;-66
2022/11/07 01:56:16;;;;;;;;;;;;;;;14.04;45.97;95396.53;5016431;28;20014;-66
2022/11/07 01:58:41;;;;;;;;;;;;;;;14.13;45.82;95391.19;5025588;28;20018;-66
2022/11/07 02:01:07;;;;;;;;;;;;;;;14.03;46.27;95403.00;5028831;28;20109;-68
2022/11/07 02:03:33;;;;;;;;;;;;;;;14.13;46.30;95401.88;5028909;28;20167;-65
2022/11/07 02:06:00;;;;;;;;;;;;;;;14.52;45.44;95397.34;5026334;28;20010;-65
2022/11/07 02:08:26;;;;;;;;;;;;;;;13.93;47.40;95413.25;5027773;28;20048;-66
2022/11/07 02:10:52;;;;;;;;;;;;;;;14.24;47.25;95405.78;5026390;28;20025;-65
2022/11/07 02:13:24;;;;;;;;;;;;;;;14.10;47.44;95407.06;5029433;28;20014;-66
2022/11/07 02:15:49;;;;;;;;;;;;;;;13.71;49.30;95406.19;5027166;28;20010;-65
2022/11/07 02:18:15;;;;;;;;;;;;;;;14.19;48.46;95403.28;5015497;28;20076;-66
2022/11/07 02:20:40;;;;;;;;;;;;;;;14.09;48.59;95406.28;5024432;28;20481;-66
2022/11/07 02:23:07;;;;;;;;;;;;;;;13.68;50.43;95401.50;5029382;28;20522;-65
2022/11/07 02:25:33;;;;;;;;;;;;;;;14.03;49.21;95397.66;5028102;28;20398;-66
2022/11/07 02:28:01;;;;;;;;;;;;;;;14.10;49.15;95397.16;5029392;28;20010;-66
2022/11/07 02:30:28;;;;;;;;;;;;;;;13.94;49.92;95396.88;5024673;28;20104;-66
2022/11/07 02:32:53;;;;;;;;;;;;;;;13.60;51.22;95396.94;5028185;28;20050;-65
2022/11/07 02:35:27;;;;;;;;;;;;;;;13.29;52.62;95391.78;5026532;28;20123;-65
2022/11/07 02:37:53;;;;;;;;;;;;;;;13.02;53.49;95397.06;5032332;28;20014;-66
2022/11/07 02:40:18;;;;;;;;;;;;;;;13.22;53.68;95401.06;5031025;28;20017;-66
2022/11/07 02:42:44;;;;;;;;;;;;;;;13.68;52.23;95396.94;5032745;28;20017;-66
2022/11/07 02:45:17;;;;;;;;;;;;;;;13.69;52.25;95398.50;5028913;28;20010;-66
2022/11/07 02:47:43;;;;;;;;;;;;;;;13.29;53.10;95411.25;5017175;28;20021;-66
2022/11/07 02:50:09;;;;;;;;;;;;;;;13.62;52.55;95403.56;5028941;28;20414;-66
2022/11/07 02:52:35;;;;;;;;;;;;;;;13.17;53.60;95401.19;5030185;28;20101;-66
2022/11/07 02:55:00;;;;;;;;;;;;;;;13.15;53.77;95399.91;5031199;28;20113;-65
2022/11/07 02:57:25;;;;;;;;;;;;;;;13.10;53.94;95403.50;5030492;28;20010;-65
2022/11/07 02:59:51;;;;;;;;;;;;;;;13.36;53.05;95400.09;5031540;28;20038;-66
2022/11/07 03:02:16;;;;;;;;;;;;;;;12.85;54.49;95404.28;5031682;28;20022;-66
2022/11/07 03:04:41;;;;;;;;;;;;;;;12.82;54.82;95400.34;5031234;28;20069;-66
2022/11/07 03:07:06;;;;;;;;;;;;;;;12.99;54.21;95391.56;5029997;28;20021;-66
2022/11/07 03:09:31;;;;;;;;;;;;;;;13.06;54.08;95391.13;5030022;28;20109;-66
2022/11/07 03:11:57;;;;;;;;;;;;;;;12.66;55.47;95383.97;5029528;28;20028;-66
2022/11/07 03:14:22;;;;;;;;;;;;;;;12.36;56.16;95385.63;5030263;28;20017;-65
2022/11/07 03:16:47;;;;;;;;;;;;;;;12.92;55.08;95385.91;5028622;28;20113;-66
2022/11/07 03:19:12;;;;;;;;;;;;;;;12.35;56.63;95389.38;5029785;28;20010;-66
2022/11/07 03:21:38;;;;;;;;;;;;;;;12.14;57.36;95401.69;5030024;28;20071;-65
2022/11/07 03:24:03;;;;;;;;;;;;;;;12.24;56.70;95406.75;5031408;28;20472;-66
2022/11/07 03:26:28;;;;;;;;;;;;;;;12.34;56.70;95406.50;5030692;28;20006;-65
2022/11/07 03:28:53;;;;;;;;;;;;;;;12.29;57.19;95409.28;5030231;28;20041;-64
2022/11/07 03:31:19;;;;;;;;;;;;;;;12.06;57.38;95397.09;5030041;28;20017;-64
2022/11/07 03:33:44;;;;;;;;;;;;;;;12.03;57.65;95413.69;5029302;28;20048;-65
2022/11/07 03:36:09;;;;;;;;;;;;;;;12.35;56.81;95402.72;5029847;28;20053;-66
2022/11/07 03:38:34;;;;;;;;;;;;;;;12.34;56.33;95403.81;5030525;28;20010;-64
2022/11/07 03:41:00;;;;;;;;;;;;;;;11.95;57.96;95407.25;5028792;28;20021;-65
2022/11/07 03:43:25;;;;;;;;;;;;;;;12.22;56.90;95417.72;5029638;28;20694;-65
2022/11/07 03:45:50;;;;;;;;;;;;;;;12.38;56.32;95422.66;5028178;28;20014;-66
2022/11/07 03:48:16;;;;;;;;;;;;;;;12.33;56.17;95412.09;5029911;28;20095;-66
2022/11/07 03:50:41;;;;;;;;;;;;;;;12.10;56.72;95419.41;5029481;28;20389;-65
2022/11/07 03:53:06;;;;;;;;;;;;;;;12.37;56.33;95418.41;5031447;28;20482;-65
2022/11/07 03:55:31;;;;;;;;;;;;;;;12.06;56.65;95413.88;5029466;28;20010;-65
2022/11/07 03:57:57;;;;;;;;;;;;;;;12.53;55.59;95416.13;5030232;28;20018;-65
2022/11/07 04:00:22;;;;;;;;;;;;;;;12.63;55.32;95419.28;5029651;28;20018;-67
2022/11/07 04:02:48;;;;;;;;;;;;;;;12.14;56.89;95428.38;5031553;28;20005;-66
2022/11/07 04:05:13;;;;;;;;;;;;;;;12.38;55.89;95418.09;5029311;28;20159;-66
2022/11/07 04:07:39;;;;;;;;;;;;;;;11.88;57.35;95433.56;5030910;28;20009;-66
2022/11/07 04:10:04;;;;;;;;;;;;;;;11.87;57.50;95435.41;5030206;28;20417;-66
2022/11/07 04:17:59;;;;;;;;;;;;;;;12.13;56.16;95432.09;5030445;28;20187;-67
2022/11/07 04:20:25;;;;;;;;;;;;;;;12.43;55.49;95436.63;5030151;28;20010;-67
2022/11/07 04:22:50;;;;;;;;;;;;;;;12.83;54.24;95435.81;5031104;28;20089;-65
2022/11/07 04:25:15;;;;;;;;;;;;;;;12.57;54.75;95441.09;5029704;28;20426;-67
2022/11/07 04:27:43;;;;;;;;;;;;;;;12.34;55.39;95438.50;5026139;28;20014;-67
2022/11/07 04:30:27;;;;;;;;;;;;;;;12.17;56.08;95435.72;5019637;28;20014;-66
2022/11/07 04:32:59;;;;;;;;;;;;;;;12.07;56.48;95431.44;5023609;28;20021;-66
2022/11/07 04:35:27;;;;;;;;;;;;;;;12.13;56.09;95435.56;5028556;28;20017;-65
2022/11/07 04:37:52;;;;;;;;;;;;;;;12.23;56.06;95445.97;5030906;28;20006;-67
2022/11/07 04:40:18;;;;;;;;;;;;;;;12.31;55.58;95446.31;5028432;28;20384;-68
2022/11/07 04:42:44;;;;;;;;;;;;;;;12.09;56.01;95444.50;5012534;28;20021;-68
2022/11/07 04:45:10;;;;;;;;;;;;;;;12.42;55.40;95442.28;5012201;28;20013;-70
2022/11/07 04:47:36;;;;;;;;;;;;;;;12.61;54.40;95439.38;5030568;28;20620;-67
2022/11/07 04:50:01;;;;;;;;;;;;;;;12.36;55.25;95443.50;5028667;28;20010;-65
2022/11/07 04:52:27;;;;;;;;;;;;;;;12.58;54.20;95448.00;5028939;28;20025;-67
2022/11/07 04:54:52;;;;;;;;;;;;;;;12.59;54.00;95450.38;5029148;28;20037;-64
2022/11/07 04:57:18;;;;;;;;;;;;;;;12.57;54.08;95457.09;5030443;28;20025;-64
2022/11/07 04:59:43;;;;;;;;;;;;;;;12.55;54.02;95456.63;5027115;28;20014;-66
2022/11/07 05:02:09;;;;;;;;;;;;;;;12.48;53.96;95465.06;5028153;28;20378;-67
2022/11/07 05:04:35;;;;;;;;;;;;;;;12.43;54.25;95452.63;5030315;28;20010;-65
2022/11/07 05:07:00;;;;;;;;;;;;;;;12.41;54.41;95462.06;5028140;28;20592;-65
2022/11/07 05:09:26;;;;;;;;;;;;;;;12.35;54.61;95460.63;5029153;28;20080;-65
2022/11/07 05:11:51;;;;;;;;;;;;;;;12.29;55.05;95467.19;5028258;28;20486;-65
2022/11/07 05:14:16;;;;;;;;;;;;;;;12.23;54.91;95472.66;5028760;28;20118;-65
2022/11/07 05:16:42;;;;;;;;;;;;;;;12.15;55.48;95472.59;5026088;28;20018;-64
2022/11/07 05:19:11;;;;;;;;;;;;;;;12.06;55.53;95469.88;5029737;28;20009;-65
2022/11/07 05:21:36;;;;;;;;;;;;;;;12.02;56.04;95470.78;5027960;28;20018;-66
2022/11/07 05:24:01;;;;;;;;;;;;;;;11.99;56.19;95480.19;5027463;28;20014;-65
2022/11/07 05:26:26;;;;;;;;;;;;;;;11.97;55.96;95501.78;5028495;28;20549;-66
2022/11/07 05:28:52;;;;;;;;;;;;;;;11.92;56.37;95482.47;5030157;28;20007;-65
2022/11/07 05:31:17;;;;;;;;;;;;;;;11.88;56.23;95482.31;5027660;28;20026;-65
2022/11/07 05:33:43;;;;;;;;;;;;;;;11.84;56.17;95480.56;5029791;28;20010;-63
2022/11/07 05:36:08;;;;;;;;;;;;;;;11.77;55.87;95488.13;5027558;28;20426;-65
2022/11/07 05:38:33;;;;;;;;;;;;;;;11.67;56.21;95486.53;5029897;28;20060;-66
2022/11/07 05:41:01;;;;;;;;;;;;;;;11.58;56.71;95483.78;5028849;28;20379;-66
2022/11/07 05:43:26;;;;;;;;;;;;;;;11.50;56.92;95478.38;5029518;28;20101;-66
2022/11/07 05:45:51;;;;;;;;;;;;;;;11.42;57.59;95479.88;5026473;28;20589;-65
2022/11/07 05:48:16;;;;;;;;;;;;;;;11.37;57.87;95491.44;5029784;28;20016;-64
2022/11/07 05:50:42;;;;;;;;;;;;;;;11.31;57.91;95492.66;5028548;28;20096;-65
2022/11/07 05:53:07;;;;;;;;;;;;;;;11.25;58.42;95495.69;5026455;28;20382;-65
2022/11/07 05:55:32;;;;;;;;;;;;;;;11.19;57.61;95493.13;5028208;28;20018;-65
2022/11/07 05:57:57;;;;;;;;;;;;;;;11.14;58.51;95487.13;5027289;28;20020;-64
2022/11/07 06:00:23;;;;;;;;;;;;;;;11.10;58.75;95494.91;5026312;28;20703;-66
2022/11/07 06:02:55;;;;;;;;;;;;;;;11.07;58.85;95498.19;5019673;28;20014;-65
2022/11/07 06:05:20;;;;;;;;;;;;;;;11.01;58.55;95498.59;5012626;28;20096;-64
2022/11/07 06:07:45;;;;;;;;;;;;;;;10.98;58.52;95501.84;5027721;28;20096;-65
2022/11/07 06:10:11;;;;;;;;;;;;;;;10.98;58.96;95493.88;5030182;28;20106;-64
2022/11/07 06:12:36;;;;;;;;;;;;;;;10.94;58.87;95499.78;5032027;28;20395;-66
2022/11/07 06:15:01;;;;;;;;;;;;;;;10.96;58.82;95493.38;5029544;28;20018;-64
2022/11/07 06:17:27;;;;;;;;;;;;;;;10.98;58.79;95496.53;5031020;28;20022;-64
2022/11/07 06:19:52;;;;;;;;;;;;;;;10.94;58.80;95509.63;5033509;28;20016;-64
2022/11/07 06:22:17;;;;;;;;;;;;;;;11.00;58.97;95507.66;5032362;28;20014;-65
2022/11/07 06:24:42;;;;;;;;;;;;;;;11.02;58.79;95503.63;5031681;28;20386;-65
2022/11/07 06:27:07;;;;;;;;;;;;;;;11.06;59.13;95509.16;5030925;28;20061;-65
2022/11/07 06:29:32;;;;;;;;;;;;;;;11.10;58.93;95510.09;5032210;28;20084;-65
2022/11/07 06:31:58;;;;;;;;;;;;;;;11.15;57.80;95516.13;5029456;28;20100;-64
2022/11/07 06:34:23;;;;;;;;;;;;;;;11.18;57.79;95518.19;5033196;28;20107;-66
2022/11/07 06:36:54;;;;;;;;;;;;;;;11.24;57.70;95512.75;5030399;28;20402;-66
2022/11/07 06:39:20;;;;;;;;;;;;;;;11.25;58.21;95512.44;5029835;28;20020;-65
2022/11/07 06:41:47;;;;;;;;;;;;;;;11.27;57.82;95507.63;5030429;28;20014;-64
2022/11/07 06:44:12;;;;;;;;;;;;;;;11.31;57.63;95507.81;5032981;28;20795;-65
2022/11/07 06:46:37;;;;;;;;;;;;;;;11.31;57.28;95513.94;5031072;28;20017;-64
2022/11/07 06:49:02;;;;;;;;;;;;;;;11.40;57.50;95516.66;5030167;28;20010;-63
2022/11/07 06:51:28;;;;;;;;;;;;;;;11.46;57.65;95523.47;5031398;28;20067;-65
2022/11/07 06:53:53;;;;;;;;;;;;;;;11.51;56.78;95526.00;5031125;28;20105;-63
2022/11/07 06:56:18;;;;;;;;;;;;;;;11.56;56.85;95525.91;5029803;28;20009;-64
2022/11/07 06:58:44;;;;;;;;;;;;;;;11.59;56.59;95530.66;5030684;28;20021;-66
2022/11/07 07:01:12;;;;;;;;;;;;;;;11.64;56.58;95535.06;5032134;28;20056;-65
2022/11/07 07:03:37;;;;;;;;;;;;;;;11.72;56.52;95531.72;5031392;28;20532;-68
2022/11/07 07:06:03;;;;;;;;;;;;;;;11.79;56.43;95534.72;5028258;28;20046;-67
2022/11/07 07:08:29;;;;;;;;;;;;;;;11.84;56.49;95539.97;5027455;28;20010;-69
2022/11/07 07:10:54;;;;;;;;;;;;;;;11.92;56.37;95546.44;5026911;28;20018;-67
2022/11/07 07:13:19;;;;;;;;;;;;;;;11.97;56.20;95546.34;5031057;28;20053;-67
2022/11/07 07:15:51;;;;;;;;;;;;;;;12.08;55.61;95544.22;5030583;28;20127;-66
2022/11/07 07:18:17;;;;;;;;;;;;;;;12.16;55.46;95549.63;5030697;28;20014;-67
2022/11/07 07:20:42;;;;;;;;;;;;;;;12.25;55.65;95552.34;5030065;28;20014;-66
2022/11/07 07:23:08;;;;;;;;;;;;;;;12.34;55.54;95555.09;5027318;28;20014;-67
2022/11/07 07:25:33;;;;;;;;;;;;;;;12.41;55.14;95550.88;5029031;28;20014;-67
2022/11/07 07:27:58;;;;;;;;;;;;;;;12.48;54.98;95548.56;5031569;28;20067;-67
2022/11/07 07:30:23;;;;;;;;;;;;;;;12.62;54.93;95545.03;5030883;28;20014;-68
2022/11/07 07:32:49;;;;;;;;;;;;;;;12.70;54.75;95547.75;5031039;28;20014;-68
2022/11/07 07:35:14;;;;;;;;;;;;;;;12.85;54.98;95551.13;5027162;28;20021;-68
2022/11/07 07:37:39;;;;;;;;;;;;;;;12.95;54.24;95556.97;5027915;28;20018;-69
2022/11/07 07:40:05;;;;;;;;;;;;;;;13.00;54.33;95548.81;5030821;28;20010;-69
2022/11/07 07:42:30;;;;;;;;;;;;;;;13.22;53.88;95558.66;5032536;28;20096;-64
2022/11/07 07:44:55;;;;;;;;;;;;;;;13.41;53.54;95549.56;5027190;28;20014;-65
2022/11/07 07:47:21;;;;;;;;;;;;;;;13.61;53.19;95545.50;5021062;28;20010;-68
2022/11/07 07:49:46;;;;;;;;;;;;;;;13.75;52.73;95549.63;5028418;28;20398;-67
2022/11/07 07:52:11;;;;;;;;;;;;;;;13.86;52.40;95547.41;5030402;28;20017;-65
2022/11/07 07:54:36;;;;;;;;;;;;;;;14.00;51.85;95542.72;5029290;28;20014;-66
2022/11/07 07:57:02;;;;;;;;;;;;;;;14.13;51.74;95542.88;5029549;28;20017;-66
2022/11/07 07:59:27;;;;;;;;;;;;;;;14.24;51.88;95552.16;5029298;28;20014;-68
2022/11/07 08:01:52;;;;;;;;;;;;;;;14.32;51.42;95551.34;5028237;28;20020;-66
2022/11/07 08:04:17;;;;;;;;;;;;;;;14.37;51.31;95550.38;5029724;28;20037;-65
2022/11/07 08:06:43;;;;;;;;;;;;;;;14.30;50.99;95548.19;5028197;28;20076;-67
2022/11/07 08:09:08;;;;;;;;;;;;;;;14.45;50.94;95552.28;5029248;28;20014;-66
2022/11/07 08:11:33;;;;;;;;;;;;;;;14.61;50.71;95557.94;5027758;28;20105;-67
2022/11/07 08:13:58;;;;;;;;;;;;;;;14.71;50.28;95552.22;5029929;28;20013;-66
2022/11/07 08:16:23;;;;;;;;;;;;;;;14.89;50.43;95556.41;5027621;28;20141;-65
2022/11/07 08:18:49;;;;;;;;;;;;;;;14.98;49.97;95554.50;5026475;28;20014;-67
2022/11/07 08:21:14;;;;;;;;;;;;;;;15.09;49.73;95555.69;5028676;28;20059;-67
2022/11/07 08:23:39;;;;;;;;;;;;;;;15.04;49.80;95557.78;5026104;28;20014;-68
2022/11/07 08:26:05;;;;;;;;;;;;;;;15.17;49.63;95561.38;5029512;28;20018;-66
2022/11/07 08:28:31;;;;;;;;;;;;;;;15.15;49.19;95559.00;5029355;28;20010;-66
2022/11/07 08:31:01;;;;;;;;;;;;;;;15.36;49.27;95558.28;5021026;28;20045;-65
2022/11/07 08:33:27;;;;;;;;;;;;;;;15.11;48.95;95507.16;5015967;28;20010;-67
2022/11/07 08:35:59;;;;;;;;;;;;;;;15.64;48.45;95564.75;5028466;28;20021;-66
2022/11/07 08:38:24;;;;;;;;;;;;;;;15.57;48.48;95564.47;5029928;28;20010;-66
2022/11/07 08:40:49;;;;;;;;;;;;;;;15.59;47.59;95563.00;5029274;28;20059;-66
2022/11/07 08:43:16;;;;;;;;;;;;;;;15.86;47.19;95555.59;5026808;28;20101;-66
2022/11/07 08:45:42;;;;;;;;;;;;;;;16.13;47.06;95558.88;5024748;28;20014;-66
2022/11/07 08:48:07;;;;;;;;;;;;;;;15.73;46.37;95568.16;5026020;28;20068;-67
2022/11/07 08:50:32;;;;;;;;;;;;;;;14.96;48.30;95575.47;5013231;28;20014;-68
2022/11/07 08:52:58;;;;;;;;;;;;;;;15.56;47.27;95569.03;5028192;28;20014;-67
2022/11/07 08:55:23;;;;;;;;;;;;;;;16.00;46.81;95566.09;5025791;28;20010;-67
2022/11/07 08:57:49;;;;;;;;;;;;;;;15.82;46.37;95566.22;5028595;28;20020;-68
2022/11/07 09:00:14;;;;;;;;;;;;;;;15.72;46.12;95581.91;5028500;28;20010;-67
2022/11/07 09:02:39;;;;;;;;;;;;;;;15.00;47.47;95571.03;5028949;28;20010;-67
2022/11/07 09:05:04;;;;;;;;;;;;;;;15.15;46.87;95580.44;5026703;28;20628;-67
2022/11/07 09:07:30;;;;;;;;;;;;;;;15.14;46.69;95578.06;5028524;28;20498;-67
2022/11/07 09:09:55;;;;;;;;;;;;;;;15.16;46.98;95582.00;5028756;28;20014;-68
2022/11/07 09:12:20;;;;;;;;;;;;;;;15.52;46.22;95565.44;5028557;28;20467;-66
2022/11/07 09:14:45;;;;;;;;;;;;;;;15.30;46.71;95571.88;5030005;28;20012;-66
2022/11/07 09:17:10;;;;;;;;;;;;;;;15.17;46.79;95578.22;5026442;28;20013;-68
2022/11/07 09:19:36;;;;;;;;;;;;;;;15.19;47.10;95580.56;5030261;28;20010;-66
2022/11/07 09:22:01;;;;;;;;;;;;;;;15.17;46.66;95580.13;5028313;28;20017;-67
2022/11/07 09:24:26;;;;;;;;;;;;;;;15.49;46.38;95582.16;5028678;28;20037;-67
2022/11/07 09:26:51;;;;;;;;;;;;;;;15.20;47.06;95582.13;5029577;28;20534;-67
2022/11/07 09:29:16;;;;;;;;;;;;;;;15.21;47.19;95584.50;5028924;28;20020;-67
2022/11/07 09:31:42;;;;;;;;;;;;;;;15.40;46.61;95586.78;5028288;28;20022;-67
2022/11/07 09:34:07;;;;;;;;;;;;;;;15.31;46.30;95586.84;5028639;28;20014;-67
2022/11/07 09:36:32;;;;;;;;;;;;;;;16.00;45.77;95582.97;5029245;28;20006;-68
2022/11/07 09:38:58;;;;;;;;;;;;;;;16.20;44.59;95591.34;5027615;28;20097;-67
2022/11/07 09:41:42;;;;;;;;;;;;;;;15.75;45.53;95586.59;5029999;28;20013;-68
2022/11/07 09:44:13;;;;;;;;;;;;;;;16.57;44.28;95582.31;5028548;28;20068;-68
2022/11/07 09:46:57;;;;;;;;;;;;;;;16.33;45.20;95584.94;5029055;28;20049;-67
2022/11/07 09:49:38;;;;;;;;;;;;;;;17.03;43.37;95579.66;5029782;28;20386;-68
2022/11/07 09:52:11;;;;;;;;;;;;;;;16.98;43.41;95585.25;5027603;28;20014;-67
2022/11/07 09:54:40;;;;;;;;;;;;;;;17.33;43.01;95583.72;5029002;28;20013;-68
2022/11/07 09:57:09;;;;;;;;;;;;;;;16.68;43.77;95582.69;5029172;28;20008;-67
2022/11/07 09:59:41;;;;;;;;;;;;;;;16.22;44.21;95589.09;5028469;28;20528;-66
2022/11/07 10:02:14;;;;;;;;;;;;;;;16.33;44.03;95585.72;5029702;28;20003;-67
2022/11/07 10:04:40;;;;;;;;;;;;;;;15.50;45.50;95588.28;5027343;28;20018;-66
2022/11/07 10:07:28;;;;;;;;;;;;;;;15.92;45.48;95581.16;5027764;28;20531;-68
2022/11/07 10:10:12;;;;;;;;;;;;;;;15.98;44.65;95579.84;4991787;28;20014;-67
2022/11/07 10:12:49;;;;;;;;;;;;;;;15.83;45.31;95583.09;5029408;28;20814;-68
2022/11/07 10:15:18;;;;;;;;;;;;;;;15.85;44.85;95588.91;5026828;28;20010;-67
2022/11/07 10:17:53;;;;;;;;;;;;;;;16.86;43.26;95575.25;5029595;28;20013;-68
2022/11/07 10:20:21;;;;;;;;;;;;;;;16.19;44.25;95573.66;5028191;28;20010;-68
2022/11/07 10:23:02;;;;;;;;;;;;;;;16.14;44.69;95576.56;5027987;28;20513;-68
2022/11/07 10:25:31;;;;;;;;;;;;;;;16.08;45.17;95581.34;5027276;28;20014;-68
2022/11/07 10:28:05;;;;;;;;;;;;;;;16.40;44.13;95574.44;5028371;28;20010;-68
2022/11/07 10:30:30;;;;;;;;;;;;;;;16.41;44.20;95578.69;5027758;28;20064;-67
2022/11/07 10:33:06;;;;;;;;;;;;;;;17.06;43.06;95574.41;5029411;28;20095;-67
2022/11/07 10:35:33;;;;;;;;;;;;;;;17.23;42.71;95578.78;5027459;28;20014;-67
2022/11/07 10:37:59;;;;;;;;;;;;;;;17.04;42.87;95573.16;5027957;28;20398;-68
2022/11/07 10:40:32;;;;;;;;;;;;;;;15.73;44.76;95576.22;5028257;28;20010;-68
2022/11/07 10:42:58;;;;;;;;;;;;;;;16.09;44.68;95569.50;5027893;28;20014;-68
2022/11/07 10:45:24;;;;;;;;;;;;;;;16.15;45.63;95578.13;5027779;28;20532;-73
2022/11/07 10:48:01;;;;;;;;;;;;;;;16.24;44.48;95581.53;5027857;28;20010;-67
2022/11/07 10:50:27;;;;;;;;;;;;;;;16.48;44.27;95578.94;5028105;28;20014;-67
2022/11/07 10:52:58;;;;;;;;;;;;;;;17.05;44.19;95572.06;5029125;28;20018;-67
2022/11/07 10:55:25;;;;;;;;;;;;;;;16.11;44.06;95575.31;5027878;28;20130;-69
2022/11/07 10:57:58;;;;;;;;;;;;;;;16.44;44.08;95572.66;5029553;28;20017;-69
2022/11/07 11:00:23;;;;;;;;;;;;;;;16.94;43.30;95569.03;5032713;28;20417;-67
2022/11/07 11:02:49;;;;;;;;;;;;;;;16.63;43.65;95572.94;5031013;28;20014;-69
2022/11/07 11:05:18;;;;;;;;;;;;;;;16.57;43.52;95570.78;5030871;28;20010;-68
2022/11/07 11:07:43;;;;;;;;;;;;;;;16.78;43.01;95570.75;5032756;28;20036;-68
2022/11/07 11:10:19;;;;;;;;;;;;;;;17.34;41.84;95571.81;5031678;28;20010;-67
2022/11/07 11:12:45;;;;;;;;;;;;;;;16.75;43.15;95571.44;5031567;28;20127;-67
2022/11/07 11:15:14;;;;;;;;;;;;;;;16.81;43.32;95573.56;5031903;28;20010;-67
2022/11/07 11:17:40;;;;;;;;;;;;;;;16.38;43.28;95569.41;5032393;28;20430;-67
2022/11/07 11:20:08;;;;;;;;;;;;;;;16.20;44.05;95569.88;5032550;28;20006;-66
2022/11/07 11:22:39;;;;;;;;;;;;;;;16.42;43.39;95564.13;5025928;28;20010;-67
2022/11/07 11:25:11;;;;;;;;;;;;;;;16.16;44.55;95572.41;5032230;28;20060;-69
2022/11/07 11:27:37;;;;;;;;;;;;;;;15.95;44.96;95572.44;5032444;28;20013;-68
2022/11/07 11:30:06;;;;;;;;;;;;;;;16.18;44.71;95566.75;5030770;28;20017;-67
2022/11/07 11:32:35;;;;;;;;;;;;;;;16.72;43.83;95556.75;5030730;28;20025;-68
2022/11/07 11:35:12;;;;;;;;;;;;;;;16.86;43.23;95562.59;5030879;28;20100;-68
2022/11/07 11:37:40;;;;;;;;;;;;;;;16.13;44.89;95554.31;5030930;28;20014;-67
2022/11/07 11:40:08;;;;;;;;;;;;;;;16.09;44.87;95550.69;5032256;28;20006;-68
2022/11/07 11:42:39;;;;;;;;;;;;;;;16.41;44.39;95545.69;5015204;28;20022;-67
2022/11/07 11:45:24;;;;;;;;;;;;;;;16.18;44.50;95543.38;5010201;28;20053;-68
2022/11/07 11:48:01;;;;;;;;;;;;;;;15.87;45.35;95541.09;5004936;28;20455;-66
2022/11/07 11:50:48;;;;;;;;;;;;;;;16.18;44.94;95535.31;5031659;28;20006;-67
2022/11/07 11:53:15;;;;;;;;;;;;;;;16.82;43.67;95531.38;5029420;28;20022;-69
2022/11/07 11:55:46;;;;;;;;;;;;;;;16.20;44.77;95534.97;5030123;28;20010;-68
2022/11/07 11:58:20;;;;;;;;;;;;;;;15.96;45.41;95538.31;5025076;28;20368;-68
2022/11/07 12:00:51;;;;;;;;;;;;;;;16.85;43.06;95539.56;5010815;28;20020;-67
2022/11/07 12:03:22;;;;;;;;;;;;;;;16.45;44.30;95539.31;5010501;28;20017;-67
2022/11/07 12:06:02;;;;;;;;;;;;;;;16.95;43.10;95534.88;5011601;28;20010;-67
2022/11/07 12:08:27;;;;;;;;;;;;;;;16.15;44.62;95527.91;5015284;28;20014;-68
2022/11/07 12:11:11;;;;;;;;;;;;;;;16.35;44.50;95529.78;5030103;28;20064;-69
2022/11/07 12:13:37;;;;;;;;;;;;;;;16.64;43.88;95522.69;5030284;28;20018;-68
2022/11/07 12:16:07;;;;;;;;;;;;;;;16.82;43.31;95515.25;5029692;28;20010;-68
2022/11/07 12:19:05;;;;;;;;;;;;;;;17.24;42.48;95510.44;5029493;28;20117;-69
2022/11/07 12:21:54;;;;;;;;;;;;;;;17.90;41.64;95515.50;5030062;28;20010;-68
2022/11/07 12:24:36;;;;;;;;;;;;;;;17.93;40.84;95509.44;5022649;28;20036;-68
2022/11/07 12:27:20;;;;;;;;;;;;;;;18.32;40.55;95509.72;5011543;28;20478;-67
2022/11/07 12:30:04;;;;;;;;;;;;;;;17.30;42.10;95511.00;5010210;28;20474;-68
2022/11/07 12:32:35;;;;;;;;;;;;;;;18.35;40.48;95508.28;5016613;28;20021;-67
2022/11/07 12:35:18;;;;;;;;;;;;;;;18.18;40.44;95499.38;5029759;28;20006;-67
2022/11/07 12:37:54;;;;;;;;;;;;;;;18.44;39.11;95501.59;5017695;28;20452;-68
2022/11/07 12:40:37;;;;;;;;;;;;;;;17.38;41.08;95502.03;5028643;28;20013;-69
2022/11/07 12:43:06;;;;;;;;;;;;;;;17.71;40.76;95501.06;5029066;28;20071;-69
2022/11/07 12:46:00;;;;;;;;;;;;;;;17.98;40.40;95502.28;5030446;28;20530;-67
2022/11/07 12:48:35;;;;;;;;;;;;;;;17.47;41.52;95497.31;4960595;28;20010;-68
2022/11/07 12:51:20;;;;;;;;;;;;;;;18.01;40.30;95499.66;5031126;28;20010;-68
2022/11/07 12:54:24;;;;;;;;;;;;;;;18.00;40.09;95497.31;5029262;28;20022;-68
2022/11/07 12:56:51;;;;;;;;;;;;;;;18.22;39.93;95495.97;4952546;28;20011;-68